sensor_id;sensor_type;location;lat;lon;timestamp;P1;durP1;ratioP1;P2;durP2;ratioP2
27740;SDS011;15134;48.768;9.184;2022-12-18T00:00:39;69.97;;;30.80;;
27740;SDS011;15134;48.768;9.184;2022-12-18T00:03:09;75.30;;;31.48;;
27740;SDS011;15134;48.768;9.184;2022-12-18T00:08:01;78.90;;;31.38;;
27740;SDS011;15134;48.768;9.184;2022-12-18T00:10:28;82.68;;;30.70;;
27740;SDS011;15134;48.768;9.184;2022-12-18T00:12:54;81.32;;;30.98;;
27740;SDS011;15134;48.768;9.184;2022-12-18T00:15:19;74.80;;;30.33;;
27740;SDS011;15134;48.768;9.184;2022-12-18T00:17:45;72.10;;;32.33;;
27740;SDS011;15134;48.768;9.184;2022-12-18T00:20:11;76.38;;;29.88;;
27740;SDS011;15134;48.768;9.184;2022-12-18T00:22:37;77.60;;;30.40;;
27740;SDS011;15134;48.768;9.184;2022-12-18T00:25:02;92.80;;;34.57;;
27740;SDS011;15134;48.768;9.184;2022-12-18T00:27:28;75.63;;;32.58;;
27740;SDS011;15134;48.768;9.184;2022-12-18T00:29:54;79.33;;;32.73;;
27740;SDS011;15134;48.768;9.184;2022-12-18T00:32:20;77.73;;;31.33;;
27740;SDS011;15134;48.768;9.184;2022-12-18T00:34:46;82.70;;;31.87;;
27740;SDS011;15134;48.768;9.184;2022-12-18T00:37:11;77.07;;;28.10;;
27740;SDS011;15134;48.768;9.184;2022-12-18T00:39:37;69.40;;;30.40;;
27740;SDS011;15134;48.768;9.184;2022-12-18T00:42:02;78.43;;;32.33;;
27740;SDS011;15134;48.768;9.184;2022-12-18T00:44:47;76.70;;;30.35;;
27740;SDS011;15134;48.768;9.184;2022-12-18T00:47:12;78.00;;;30.53;;
27740;SDS011;15134;48.768;9.184;2022-12-18T00:49:38;85.77;;;32.53;;
27740;SDS011;15134;48.768;9.184;2022-12-18T00:52:04;76.13;;;30.50;;
27740;SDS011;15134;48.768;9.184;2022-12-18T00:54:30;79.03;;;31.97;;
27740;SDS011;15134;48.768;9.184;2022-12-18T00:56:55;80.53;;;32.83;;
27740;SDS011;15134;48.768;9.184;2022-12-18T00:59:21;84.77;;;32.57;;
27740;SDS011;15134;48.768;9.184;2022-12-18T01:01:47;86.50;;;31.37;;
27740;SDS011;15134;48.768;9.184;2022-12-18T01:04:13;79.07;;;31.93;;
27740;SDS011;15134;48.768;9.184;2022-12-18T01:06:39;82.53;;;32.40;;
27740;SDS011;15134;48.768;9.184;2022-12-18T01:09:05;77.90;;;30.75;;
27740;SDS011;15134;48.768;9.184;2022-12-18T01:11:31;67.10;;;28.67;;
27740;SDS011;15134;48.768;9.184;2022-12-18T01:13:57;80.07;;;31.77;;
27740;SDS011;15134;48.768;9.184;2022-12-18T01:16:22;79.27;;;30.13;;
27740;SDS011;15134;48.768;9.184;2022-12-18T01:18:50;75.57;;;30.65;;
27740;SDS011;15134;48.768;9.184;2022-12-18T01:21:18;81.13;;;31.35;;
27740;SDS011;15134;48.768;9.184;2022-12-18T01:23:44;78.83;;;29.13;;
27740;SDS011;15134;48.768;9.184;2022-12-18T01:26:11;69.17;;;28.10;;
27740;SDS011;15134;48.768;9.184;2022-12-18T01:28:42;74.40;;;29.88;;
27740;SDS011;15134;48.768;9.184;2022-12-18T01:31:23;77.72;;;31.05;;
27740;SDS011;15134;48.768;9.184;2022-12-18T01:33:54;77.70;;;30.60;;
27740;SDS011;15134;48.768;9.184;2022-12-18T01:36:24;71.85;;;29.27;;
27740;SDS011;15134;48.768;9.184;2022-12-18T01:38:51;71.20;;;27.08;;
27740;SDS011;15134;48.768;9.184;2022-12-18T01:41:21;76.57;;;29.88;;
27740;SDS011;15134;48.768;9.184;2022-12-18T01:46:23;66.15;;;27.90;;
27740;SDS011;15134;48.768;9.184;2022-12-18T01:48:54;65.22;;;28.10;;
27740;SDS011;15134;48.768;9.184;2022-12-18T01:51:23;72.60;;;27.88;;
27740;SDS011;15134;48.768;9.184;2022-12-18T01:53:50;70.30;;;26.35;;
27740;SDS011;15134;48.768;9.184;2022-12-18T01:56:16;68.07;;;26.77;;
27740;SDS011;15134;48.768;9.184;2022-12-18T01:58:55;67.25;;;27.88;;
27740;SDS011;15134;48.768;9.184;2022-12-18T02:01:31;64.38;;;26.02;;
27740;SDS011;15134;48.768;9.184;2022-12-18T02:06:46;67.20;;;27.70;;
27740;SDS011;15134;48.768;9.184;2022-12-18T02:12:27;69.38;;;26.50;;
27740;SDS011;15134;48.768;9.184;2022-12-18T02:20:28;71.88;;;28.73;;
27740;SDS011;15134;48.768;9.184;2022-12-18T02:26:01;68.43;;;25.75;;
27740;SDS011;15134;48.768;9.184;2022-12-18T02:28:56;73.20;;;26.70;;
27740;SDS011;15134;48.768;9.184;2022-12-18T02:31:30;74.25;;;27.40;;
27740;SDS011;15134;48.768;9.184;2022-12-18T02:34:05;69.95;;;29.67;;
27740;SDS011;15134;48.768;9.184;2022-12-18T02:36:37;72.60;;;27.77;;
27740;SDS011;15134;48.768;9.184;2022-12-18T02:39:05;62.58;;;26.65;;
27740;SDS011;15134;48.768;9.184;2022-12-18T02:41:36;64.00;;;26.63;;
27740;SDS011;15134;48.768;9.184;2022-12-18T02:44:06;62.85;;;25.50;;
27740;SDS011;15134;48.768;9.184;2022-12-18T02:46:36;71.97;;;27.30;;
27740;SDS011;15134;48.768;9.184;2022-12-18T03:00:27;68.97;;;26.35;;
27740;SDS011;15134;48.768;9.184;2022-12-18T03:03:05;66.75;;;26.38;;
27740;SDS011;15134;48.768;9.184;2022-12-18T03:05:48;55.30;;;24.92;;
27740;SDS011;15134;48.768;9.184;2022-12-18T03:08:20;62.13;;;23.00;;
27740;SDS011;15134;48.768;9.184;2022-12-18T03:10:50;50.63;;;20.85;;
27740;SDS011;15134;48.768;9.184;2022-12-18T03:16:12;59.00;;;22.63;;
27740;SDS011;15134;48.768;9.184;2022-12-18T03:18:57;57.40;;;21.90;;
27740;SDS011;15134;48.768;9.184;2022-12-18T03:21:28;48.65;;;20.15;;
27740;SDS011;15134;48.768;9.184;2022-12-18T03:24:13;58.63;;;20.05;;
27740;SDS011;15134;48.768;9.184;2022-12-18T03:26:43;48.47;;;20.48;;
27740;SDS011;15134;48.768;9.184;2022-12-18T03:29:17;46.78;;;19.42;;
27740;SDS011;15134;48.768;9.184;2022-12-18T03:31:48;56.40;;;20.20;;
27740;SDS011;15134;48.768;9.184;2022-12-18T03:34:26;50.97;;;20.42;;
27740;SDS011;15134;48.768;9.184;2022-12-18T03:36:59;55.92;;;21.75;;
27740;SDS011;15134;48.768;9.184;2022-12-18T03:39:30;53.47;;;22.25;;
27740;SDS011;15134;48.768;9.184;2022-12-18T03:44:45;49.20;;;20.17;;
27740;SDS011;15134;48.768;9.184;2022-12-18T03:47:45;53.72;;;21.55;;
27740;SDS011;15134;48.768;9.184;2022-12-18T03:50:32;57.35;;;21.30;;
27740;SDS011;15134;48.768;9.184;2022-12-18T03:56:33;59.47;;;23.05;;
27740;SDS011;15134;48.768;9.184;2022-12-18T03:59:04;59.83;;;22.67;;
27740;SDS011;15134;48.768;9.184;2022-12-18T04:01:34;53.40;;;21.02;;
27740;SDS011;15134;48.768;9.184;2022-12-18T04:04:04;55.38;;;22.33;;
27740;SDS011;15134;48.768;9.184;2022-12-18T04:06:33;57.30;;;24.45;;
27740;SDS011;15134;48.768;9.184;2022-12-18T04:09:00;61.97;;;24.38;;
27740;SDS011;15134;48.768;9.184;2022-12-18T04:11:27;54.40;;;20.95;;
27740;SDS011;15134;48.768;9.184;2022-12-18T04:13:56;64.43;;;24.27;;
27740;SDS011;15134;48.768;9.184;2022-12-18T04:16:23;70.75;;;25.40;;
27740;SDS011;15134;48.768;9.184;2022-12-18T04:18:55;56.53;;;23.30;;
27740;SDS011;15134;48.768;9.184;2022-12-18T04:21:23;63.30;;;22.33;;
27740;SDS011;15134;48.768;9.184;2022-12-18T04:23:49;57.27;;;23.17;;
27740;SDS011;15134;48.768;9.184;2022-12-18T04:26:16;61.30;;;24.10;;
27740;SDS011;15134;48.768;9.184;2022-12-18T04:29:02;55.15;;;23.10;;
27740;SDS011;15134;48.768;9.184;2022-12-18T04:31:28;64.63;;;23.27;;
27740;SDS011;15134;48.768;9.184;2022-12-18T04:33:54;67.90;;;32.47;;
27740;SDS011;15134;48.768;9.184;2022-12-18T04:36:20;56.25;;;23.02;;
27740;SDS011;15134;48.768;9.184;2022-12-18T04:38:46;41.53;;;16.40;;
27740;SDS011;15134;48.768;9.184;2022-12-18T04:41:14;58.53;;;28.48;;
27740;SDS011;15134;48.768;9.184;2022-12-18T04:43:42;76.45;;;47.50;;
27740;SDS011;15134;48.768;9.184;2022-12-18T04:46:08;51.33;;;22.53;;
27740;SDS011;15134;48.768;9.184;2022-12-18T04:48:34;56.05;;;22.05;;
27740;SDS011;15134;48.768;9.184;2022-12-18T04:51:01;58.35;;;21.38;;
27740;SDS011;15134;48.768;9.184;2022-12-18T04:53:27;70.70;;;44.03;;
27740;SDS011;15134;48.768;9.184;2022-12-18T04:56:02;54.13;;;23.23;;
27740;SDS011;15134;48.768;9.184;2022-12-18T04:58:32;55.38;;;21.15;;
27740;SDS011;15134;48.768;9.184;2022-12-18T05:00:57;60.07;;;24.67;;
27740;SDS011;15134;48.768;9.184;2022-12-18T05:03:23;77.07;;;59.57;;
27740;SDS011;15134;48.768;9.184;2022-12-18T05:05:49;198.63;;;183.77;;
27740;SDS011;15134;48.768;9.184;2022-12-18T05:08:16;255.27;;;233.85;;
27740;SDS011;15134;48.768;9.184;2022-12-18T05:10:42;60.58;;;26.35;;
27740;SDS011;15134;48.768;9.184;2022-12-18T05:13:08;60.77;;;20.90;;
27740;SDS011;15134;48.768;9.184;2022-12-18T05:15:33;56.33;;;21.40;;
27740;SDS011;15134;48.768;9.184;2022-12-18T05:17:59;44.80;;;16.70;;
27740;SDS011;15134;48.768;9.184;2022-12-18T05:20:26;60.97;;;22.20;;
27740;SDS011;15134;48.768;9.184;2022-12-18T05:22:52;51.13;;;20.77;;
27740;SDS011;15134;48.768;9.184;2022-12-18T05:25:19;53.60;;;22.58;;
27740;SDS011;15134;48.768;9.184;2022-12-18T05:27:45;58.85;;;22.10;;
27740;SDS011;15134;48.768;9.184;2022-12-18T05:30:12;46.85;;;19.67;;
27740;SDS011;15134;48.768;9.184;2022-12-18T05:32:38;53.17;;;21.70;;
27740;SDS011;15134;48.768;9.184;2022-12-18T05:35:05;50.72;;;19.52;;
27740;SDS011;15134;48.768;9.184;2022-12-18T05:37:32;62.08;;;23.58;;
27740;SDS011;15134;48.768;9.184;2022-12-18T05:39:58;44.67;;;19.45;;
27740;SDS011;15134;48.768;9.184;2022-12-18T05:42:23;60.23;;;23.20;;
27740;SDS011;15134;48.768;9.184;2022-12-18T05:44:49;57.63;;;40.13;;
27740;SDS011;15134;48.768;9.184;2022-12-18T05:47:15;46.92;;;32.75;;
27740;SDS011;15134;48.768;9.184;2022-12-18T05:49:40;55.37;;;29.13;;
27740;SDS011;15134;48.768;9.184;2022-12-18T05:52:06;55.50;;;20.87;;
27740;SDS011;15134;48.768;9.184;2022-12-18T05:54:32;56.57;;;20.97;;
27740;SDS011;15134;48.768;9.184;2022-12-18T05:56:58;51.63;;;21.40;;
27740;SDS011;15134;48.768;9.184;2022-12-18T05:59:24;58.87;;;32.83;;
27740;SDS011;15134;48.768;9.184;2022-12-18T06:01:49;58.08;;;30.45;;
27740;SDS011;15134;48.768;9.184;2022-12-18T06:04:15;88.22;;;77.82;;
27740;SDS011;15134;48.768;9.184;2022-12-18T06:06:41;57.97;;;20.83;;
27740;SDS011;15134;48.768;9.184;2022-12-18T06:09:07;52.87;;;20.47;;
27740;SDS011;15134;48.768;9.184;2022-12-18T06:11:35;55.92;;;20.85;;
27740;SDS011;15134;48.768;9.184;2022-12-18T06:14:02;51.10;;;19.63;;
27740;SDS011;15134;48.768;9.184;2022-12-18T06:16:29;52.50;;;20.92;;
27740;SDS011;15134;48.768;9.184;2022-12-18T06:18:56;49.10;;;20.48;;
27740;SDS011;15134;48.768;9.184;2022-12-18T06:21:26;43.35;;;18.67;;
27740;SDS011;15134;48.768;9.184;2022-12-18T06:23:52;41.80;;;18.15;;
27740;SDS011;15134;48.768;9.184;2022-12-18T06:26:18;48.97;;;21.97;;
27740;SDS011;15134;48.768;9.184;2022-12-18T06:28:44;56.10;;;19.88;;
27740;SDS011;15134;48.768;9.184;2022-12-18T06:31:10;49.23;;;20.17;;
27740;SDS011;15134;48.768;9.184;2022-12-18T06:33:36;46.42;;;19.20;;
27740;SDS011;15134;48.768;9.184;2022-12-18T06:36:03;40.13;;;16.80;;
27740;SDS011;15134;48.768;9.184;2022-12-18T06:38:31;43.97;;;18.65;;
27740;SDS011;15134;48.768;9.184;2022-12-18T06:43:23;52.35;;;20.67;;
27740;SDS011;15134;48.768;9.184;2022-12-18T06:45:49;51.55;;;18.88;;
27740;SDS011;15134;48.768;9.184;2022-12-18T06:48:20;50.38;;;19.42;;
27740;SDS011;15134;48.768;9.184;2022-12-18T06:50:46;53.70;;;19.42;;
27740;SDS011;15134;48.768;9.184;2022-12-18T06:53:12;65.55;;;26.98;;
27740;SDS011;15134;48.768;9.184;2022-12-18T06:55:38;57.33;;;24.45;;
27740;SDS011;15134;48.768;9.184;2022-12-18T06:58:04;38.27;;;14.90;;
27740;SDS011;15134;48.768;9.184;2022-12-18T07:00:30;47.47;;;17.73;;
27740;SDS011;15134;48.768;9.184;2022-12-18T07:02:55;43.63;;;18.50;;
27740;SDS011;15134;48.768;9.184;2022-12-18T07:05:21;42.00;;;17.13;;
27740;SDS011;15134;48.768;9.184;2022-12-18T07:07:47;47.55;;;18.17;;
27740;SDS011;15134;48.768;9.184;2022-12-18T07:10:13;42.80;;;17.40;;
27740;SDS011;15134;48.768;9.184;2022-12-18T07:12:39;45.47;;;19.03;;
27740;SDS011;15134;48.768;9.184;2022-12-18T07:15:05;45.67;;;19.43;;
27740;SDS011;15134;48.768;9.184;2022-12-18T07:17:31;45.70;;;18.85;;
27740;SDS011;15134;48.768;9.184;2022-12-18T07:19:57;43.03;;;18.33;;
27740;SDS011;15134;48.768;9.184;2022-12-18T07:22:24;50.20;;;19.10;;
27740;SDS011;15134;48.768;9.184;2022-12-18T07:24:50;48.95;;;20.52;;
27740;SDS011;15134;48.768;9.184;2022-12-18T07:27:16;49.37;;;20.67;;
27740;SDS011;15134;48.768;9.184;2022-12-18T07:29:42;47.93;;;19.63;;
27740;SDS011;15134;48.768;9.184;2022-12-18T07:32:07;49.50;;;20.38;;
27740;SDS011;15134;48.768;9.184;2022-12-18T07:34:34;53.03;;;19.73;;
27740;SDS011;15134;48.768;9.184;2022-12-18T07:37:00;49.97;;;20.08;;
27740;SDS011;15134;48.768;9.184;2022-12-18T07:39:26;48.33;;;19.00;;
27740;SDS011;15134;48.768;9.184;2022-12-18T07:41:51;50.43;;;19.60;;
27740;SDS011;15134;48.768;9.184;2022-12-18T07:44:38;43.40;;;17.80;;
27740;SDS011;15134;48.768;9.184;2022-12-18T07:47:04;47.47;;;19.63;;
27740;SDS011;15134;48.768;9.184;2022-12-18T07:49:30;53.15;;;20.13;;
27740;SDS011;15134;48.768;9.184;2022-12-18T07:51:56;32.57;;;13.73;;
27740;SDS011;15134;48.768;9.184;2022-12-18T07:54:23;57.58;;;21.17;;
27740;SDS011;15134;48.768;9.184;2022-12-18T07:56:49;48.08;;;19.30;;
27740;SDS011;15134;48.768;9.184;2022-12-18T07:59:15;48.35;;;19.70;;
27740;SDS011;15134;48.768;9.184;2022-12-18T08:01:41;49.50;;;20.50;;
27740;SDS011;15134;48.768;9.184;2022-12-18T08:04:07;48.63;;;19.87;;
27740;SDS011;15134;48.768;9.184;2022-12-18T08:06:33;47.55;;;19.20;;
27740;SDS011;15134;48.768;9.184;2022-12-18T08:08:58;50.87;;;19.60;;
27740;SDS011;15134;48.768;9.184;2022-12-18T08:11:25;47.17;;;19.70;;
27740;SDS011;15134;48.768;9.184;2022-12-18T08:13:52;48.65;;;21.58;;
27740;SDS011;15134;48.768;9.184;2022-12-18T08:16:18;56.85;;;22.25;;
27740;SDS011;15134;48.768;9.184;2022-12-18T08:18:44;73.97;;;29.90;;
27740;SDS011;15134;48.768;9.184;2022-12-18T08:21:11;63.53;;;21.93;;
27740;SDS011;15134;48.768;9.184;2022-12-18T08:23:38;58.70;;;22.40;;
27740;SDS011;15134;48.768;9.184;2022-12-18T08:26:04;67.82;;;25.23;;
27740;SDS011;15134;48.768;9.184;2022-12-18T08:28:30;63.23;;;25.13;;
27740;SDS011;15134;48.768;9.184;2022-12-18T08:30:56;54.77;;;22.87;;
27740;SDS011;15134;48.768;9.184;2022-12-18T08:33:22;49.78;;;20.58;;
27740;SDS011;15134;48.768;9.184;2022-12-18T08:35:47;57.10;;;22.60;;
27740;SDS011;15134;48.768;9.184;2022-12-18T08:38:13;58.07;;;22.53;;
27740;SDS011;15134;48.768;9.184;2022-12-18T08:40:39;48.03;;;19.60;;
27740;SDS011;15134;48.768;9.184;2022-12-18T08:43:04;50.53;;;21.30;;
27740;SDS011;15134;48.768;9.184;2022-12-18T08:45:49;42.90;;;19.63;;
27740;SDS011;15134;48.768;9.184;2022-12-18T08:48:14;55.93;;;22.13;;
27740;SDS011;15134;48.768;9.184;2022-12-18T08:50:40;52.43;;;20.70;;
27740;SDS011;15134;48.768;9.184;2022-12-18T08:53:06;54.33;;;20.87;;
27740;SDS011;15134;48.768;9.184;2022-12-18T08:55:31;53.60;;;20.93;;
27740;SDS011;15134;48.768;9.184;2022-12-18T08:57:57;51.87;;;21.23;;
27740;SDS011;15134;48.768;9.184;2022-12-18T09:00:23;53.93;;;22.30;;
27740;SDS011;15134;48.768;9.184;2022-12-18T09:02:49;58.53;;;22.83;;
27740;SDS011;15134;48.768;9.184;2022-12-18T09:05:14;51.63;;;21.07;;
27740;SDS011;15134;48.768;9.184;2022-12-18T09:07:40;58.20;;;22.30;;
27740;SDS011;15134;48.768;9.184;2022-12-18T09:10:06;55.13;;;22.10;;
27740;SDS011;15134;48.768;9.184;2022-12-18T09:12:32;48.75;;;24.00;;
27740;SDS011;15134;48.768;9.184;2022-12-18T09:14:57;68.63;;;30.63;;
27740;SDS011;15134;48.768;9.184;2022-12-18T09:17:23;66.07;;;26.87;;
27740;SDS011;15134;48.768;9.184;2022-12-18T09:22:15;65.40;;;25.85;;
27740;SDS011;15134;48.768;9.184;2022-12-18T09:24:41;57.47;;;23.77;;
27740;SDS011;15134;48.768;9.184;2022-12-18T09:27:07;62.90;;;29.73;;
27740;SDS011;15134;48.768;9.184;2022-12-18T09:29:32;61.07;;;31.77;;
27740;SDS011;15134;48.768;9.184;2022-12-18T09:31:58;69.03;;;39.53;;
27740;SDS011;15134;48.768;9.184;2022-12-18T09:34:24;68.30;;;28.30;;
27740;SDS011;15134;48.768;9.184;2022-12-18T09:36:49;44.93;;;19.57;;
27740;SDS011;15134;48.768;9.184;2022-12-18T09:39:15;64.17;;;28.70;;
27740;SDS011;15134;48.768;9.184;2022-12-18T09:41:45;70.73;;;27.93;;
27740;SDS011;15134;48.768;9.184;2022-12-18T09:44:26;64.55;;;26.90;;
27740;SDS011;15134;48.768;9.184;2022-12-18T09:47:09;61.60;;;26.23;;
27740;SDS011;15134;48.768;9.184;2022-12-18T09:49:43;64.32;;;27.23;;
27740;SDS011;15134;48.768;9.184;2022-12-18T09:57:39;60.30;;;26.08;;
27740;SDS011;15134;48.768;9.184;2022-12-18T10:00:15;63.75;;;29.50;;
27740;SDS011;15134;48.768;9.184;2022-12-18T10:02:44;72.28;;;29.38;;
27740;SDS011;15134;48.768;9.184;2022-12-18T10:05:14;63.42;;;27.73;;
27740;SDS011;15134;48.768;9.184;2022-12-18T10:08:00;62.83;;;30.30;;
27740;SDS011;15134;48.768;9.184;2022-12-18T10:10:38;61.95;;;26.33;;
27740;SDS011;15134;48.768;9.184;2022-12-18T10:13:28;64.65;;;25.08;;
27740;SDS011;15134;48.768;9.184;2022-12-18T10:21:07;238.55;;;219.73;;
27740;SDS011;15134;48.768;9.184;2022-12-18T10:26:16;202.82;;;184.05;;
27740;SDS011;15134;48.768;9.184;2022-12-18T10:28:42;64.60;;;24.90;;
27740;SDS011;15134;48.768;9.184;2022-12-18T10:33:42;57.80;;;22.75;;
27740;SDS011;15134;48.768;9.184;2022-12-18T10:36:08;48.25;;;17.02;;
27740;SDS011;15134;48.768;9.184;2022-12-18T10:38:34;59.67;;;23.33;;
27740;SDS011;15134;48.768;9.184;2022-12-18T10:41:01;53.50;;;21.47;;
27740;SDS011;15134;48.768;9.184;2022-12-18T10:43:32;152.75;;;138.88;;
27740;SDS011;15134;48.768;9.184;2022-12-18T10:45:59;213.30;;;196.27;;
27740;SDS011;15134;48.768;9.184;2022-12-18T10:48:27;59.63;;;27.02;;
27740;SDS011;15134;48.768;9.184;2022-12-18T10:50:55;67.10;;;23.98;;
27740;SDS011;15134;48.768;9.184;2022-12-18T10:53:24;203.02;;;186.35;;
27740;SDS011;15134;48.768;9.184;2022-12-18T10:55:52;88.63;;;79.13;;
27740;SDS011;15134;48.768;9.184;2022-12-18T11:03:45;59.75;;;29.80;;
27740;SDS011;15134;48.768;9.184;2022-12-18T11:06:24;55.65;;;26.50;;
27740;SDS011;15134;48.768;9.184;2022-12-18T11:11:29;75.53;;;49.25;;
27740;SDS011;15134;48.768;9.184;2022-12-18T11:14:02;52.15;;;22.38;;
27740;SDS011;15134;48.768;9.184;2022-12-18T11:16:43;54.38;;;21.63;;
27740;SDS011;15134;48.768;9.184;2022-12-18T11:19:25;60.63;;;25.10;;
27740;SDS011;15134;48.768;9.184;2022-12-18T11:21:58;56.10;;;24.85;;
27740;SDS011;15134;48.768;9.184;2022-12-18T11:26:54;50.28;;;19.92;;
27740;SDS011;15134;48.768;9.184;2022-12-18T11:29:37;64.63;;;35.63;;
27740;SDS011;15134;48.768;9.184;2022-12-18T11:43:44;60.92;;;32.75;;
27740;SDS011;15134;48.768;9.184;2022-12-18T11:46:13;61.17;;;28.08;;
27740;SDS011;15134;48.768;9.184;2022-12-18T11:51:34;59.38;;;37.17;;
27740;SDS011;15134;48.768;9.184;2022-12-18T11:54:11;70.57;;;44.63;;
27740;SDS011;15134;48.768;9.184;2022-12-18T12:12:36;82.00;;;68.30;;
27740;SDS011;15134;48.768;9.184;2022-12-18T12:17:59;420.00;;;389.60;;
27740;SDS011;15134;48.768;9.184;2022-12-18T12:23:48;88.90;;;77.90;;
27740;SDS011;15134;48.768;9.184;2022-12-18T12:26:27;62.35;;;39.63;;
27740;SDS011;15134;48.768;9.184;2022-12-18T12:29:23;77.57;;;65.15;;
27740;SDS011;15134;48.768;9.184;2022-12-18T12:38:23;82.72;;;70.95;;
27740;SDS011;15134;48.768;9.184;2022-12-18T12:41:04;83.45;;;73.43;;
27740;SDS011;15134;48.768;9.184;2022-12-18T12:43:52;83.63;;;69.40;;
27740;SDS011;15134;48.768;9.184;2022-12-18T12:46:20;84.55;;;73.65;;
27740;SDS011;15134;48.768;9.184;2022-12-18T12:53:51;535.35;;;495.05;;
27740;SDS011;15134;48.768;9.184;2022-12-18T12:56:18;249.70;;;229.63;;
27740;SDS011;15134;48.768;9.184;2022-12-18T13:09:32;170.65;;;155.23;;
27740;SDS011;15134;48.768;9.184;2022-12-18T13:12:07;195.73;;;178.73;;
27740;SDS011;15134;48.768;9.184;2022-12-18T13:15:04;217.82;;;199.95;;
27740;SDS011;15134;48.768;9.184;2022-12-18T13:17:47;172.45;;;156.75;;
27740;SDS011;15134;48.768;9.184;2022-12-18T13:20:14;187.00;;;171.40;;
27740;SDS011;15134;48.768;9.184;2022-12-18T13:22:44;181.95;;;166.35;;
27740;SDS011;15134;48.768;9.184;2022-12-18T13:38:20;176.68;;;161.00;;
27740;SDS011;15134;48.768;9.184;2022-12-18T13:48:16;127.47;;;114.57;;
27740;SDS011;15134;48.768;9.184;2022-12-18T13:50:56;126.00;;;113.63;;
27740;SDS011;15134;48.768;9.184;2022-12-18T13:53:24;516.80;;;478.97;;
27740;SDS011;15134;48.768;9.184;2022-12-18T13:55:53;89.10;;;78.90;;
27740;SDS011;15134;48.768;9.184;2022-12-18T13:58:20;86.75;;;69.70;;
27740;SDS011;15134;48.768;9.184;2022-12-18T14:00:46;91.47;;;69.90;;
27740;SDS011;15134;48.768;9.184;2022-12-18T14:03:19;78.23;;;55.73;;
27740;SDS011;15134;48.768;9.184;2022-12-18T14:06:01;81.38;;;63.92;;
27740;SDS011;15134;48.768;9.184;2022-12-18T14:08:32;77.55;;;61.22;;
27740;SDS011;15134;48.768;9.184;2022-12-18T14:11:00;85.97;;;64.18;;
27740;SDS011;15134;48.768;9.184;2022-12-18T14:13:32;83.72;;;59.25;;
27740;SDS011;15134;48.768;9.184;2022-12-18T14:16:02;128.75;;;115.32;;
27740;SDS011;15134;48.768;9.184;2022-12-18T14:18:36;115.82;;;103.72;;
27740;SDS011;15134;48.768;9.184;2022-12-18T14:21:15;117.57;;;105.32;;
27740;SDS011;15134;48.768;9.184;2022-12-18T14:23:45;132.73;;;119.95;;
27740;SDS011;15134;48.768;9.184;2022-12-18T14:26:29;147.07;;;132.82;;
27740;SDS011;15134;48.768;9.184;2022-12-18T14:28:58;146.27;;;131.80;;
27740;SDS011;15134;48.768;9.184;2022-12-18T14:31:27;125.93;;;113.15;;
27740;SDS011;15134;48.768;9.184;2022-12-18T14:33:54;114.57;;;102.47;;
27740;SDS011;15134;48.768;9.184;2022-12-18T14:36:30;185.15;;;169.13;;
27740;SDS011;15134;48.768;9.184;2022-12-18T14:38:56;136.35;;;123.15;;
27740;SDS011;15134;48.768;9.184;2022-12-18T14:41:23;120.40;;;108.10;;
27740;SDS011;15134;48.768;9.184;2022-12-18T14:43:51;141.30;;;127.60;;
27740;SDS011;15134;48.768;9.184;2022-12-18T14:48:56;188.73;;;172.05;;
27740;SDS011;15134;48.768;9.184;2022-12-18T14:51:23;219.35;;;201.10;;
27740;SDS011;15134;48.768;9.184;2022-12-18T14:54:00;198.25;;;181.43;;
27740;SDS011;15134;48.768;9.184;2022-12-18T14:56:30;184.70;;;168.20;;
27740;SDS011;15134;48.768;9.184;2022-12-18T14:58:58;192.07;;;175.48;;
27740;SDS011;15134;48.768;9.184;2022-12-18T15:01:37;207.98;;;190.27;;
27740;SDS011;15134;48.768;9.184;2022-12-18T15:10:02;215.20;;;196.60;;
27740;SDS011;15134;48.768;9.184;2022-12-18T15:13:05;275.17;;;250.68;;
27740;SDS011;15134;48.768;9.184;2022-12-18T15:20:32;164.95;;;150.13;;
27740;SDS011;15134;48.768;9.184;2022-12-18T15:23:11;167.00;;;151.93;;
27740;SDS011;15134;48.768;9.184;2022-12-18T15:33:41;318.00;;;292.83;;
27740;SDS011;15134;48.768;9.184;2022-12-18T15:36:25;221.60;;;202.82;;
27740;SDS011;15134;48.768;9.184;2022-12-18T15:38:52;327.85;;;302.33;;
27740;SDS011;15134;48.768;9.184;2022-12-18T15:41:20;358.15;;;331.23;;
27740;SDS011;15134;48.768;9.184;2022-12-18T15:43:47;441.92;;;408.98;;
27740;SDS011;15134;48.768;9.184;2022-12-18T15:46:21;352.42;;;324.63;;
27740;SDS011;15134;48.768;9.184;2022-12-18T15:48:50;383.33;;;354.60;;
27740;SDS011;15134;48.768;9.184;2022-12-18T15:51:18;414.45;;;382.73;;
27740;SDS011;15134;48.768;9.184;2022-12-18T15:53:50;425.95;;;393.52;;
27740;SDS011;15134;48.768;9.184;2022-12-18T15:56:18;459.95;;;426.10;;
27740;SDS011;15134;48.768;9.184;2022-12-18T15:59:04;434.35;;;401.13;;
27740;SDS011;15134;48.768;9.184;2022-12-18T16:01:38;520.17;;;479.90;;
27740;SDS011;15134;48.768;9.184;2022-12-18T16:04:04;523.75;;;479.92;;
27740;SDS011;15134;48.768;9.184;2022-12-18T16:06:30;524.13;;;480.57;;
27740;SDS011;15134;48.768;9.184;2022-12-18T16:08:56;530.07;;;486.30;;
27740;SDS011;15134;48.768;9.184;2022-12-18T16:11:23;418.50;;;385.57;;
27740;SDS011;15134;48.768;9.184;2022-12-18T16:14:48;535.28;;;490.40;;
27740;SDS011;15134;48.768;9.184;2022-12-18T16:16:55;540.67;;;495.55;;
27740;SDS011;15134;48.768;9.184;2022-12-18T16:19:23;526.85;;;482.13;;
27740;SDS011;15134;48.768;9.184;2022-12-18T16:21:54;536.88;;;489.63;;
27740;SDS011;15134;48.768;9.184;2022-12-18T16:24:22;530.92;;;485.25;;
27740;SDS011;15134;48.768;9.184;2022-12-18T16:26:52;519.15;;;477.02;;
27740;SDS011;15134;48.768;9.184;2022-12-18T16:29:18;530.03;;;484.48;;
27740;SDS011;15134;48.768;9.184;2022-12-18T16:31:49;524.50;;;478.88;;
27740;SDS011;15134;48.768;9.184;2022-12-18T16:36:51;525.33;;;480.70;;
27740;SDS011;15134;48.768;9.184;2022-12-18T16:39:18;524.33;;;478.95;;
27740;SDS011;15134;48.768;9.184;2022-12-18T16:41:45;519.97;;;476.90;;
27740;SDS011;15134;48.768;9.184;2022-12-18T16:44:10;519.20;;;475.77;;
27740;SDS011;15134;48.768;9.184;2022-12-18T16:46:37;528.42;;;484.70;;
27740;SDS011;15134;48.768;9.184;2022-12-18T16:49:04;539.25;;;495.40;;
27740;SDS011;15134;48.768;9.184;2022-12-18T16:51:30;543.88;;;497.35;;
27740;SDS011;15134;48.768;9.184;2022-12-18T16:53:56;546.67;;;500.47;;
27740;SDS011;15134;48.768;9.184;2022-12-18T16:56:22;521.35;;;474.85;;
27740;SDS011;15134;48.768;9.184;2022-12-18T16:58:51;547.45;;;500.67;;
27740;SDS011;15134;48.768;9.184;2022-12-18T17:01:18;539.95;;;493.67;;
27740;SDS011;15134;48.768;9.184;2022-12-18T17:03:50;542.07;;;494.43;;
27740;SDS011;15134;48.768;9.184;2022-12-18T17:06:17;542.17;;;495.17;;
27740;SDS011;15134;48.768;9.184;2022-12-18T17:08:43;542.67;;;497.27;;
27740;SDS011;15134;48.768;9.184;2022-12-18T17:11:08;528.43;;;481.33;;
27740;SDS011;15134;48.768;9.184;2022-12-18T17:13:34;532.43;;;485.17;;
27740;SDS011;15134;48.768;9.184;2022-12-18T17:16:01;538.15;;;487.70;;
27740;SDS011;15134;48.768;9.184;2022-12-18T17:18:32;546.20;;;496.05;;
27740;SDS011;15134;48.768;9.184;2022-12-18T17:23:25;541.00;;;491.77;;
27740;SDS011;15134;48.768;9.184;2022-12-18T17:25:58;564.35;;;509.65;;